Time;durP1;ratioP1;P1;durP2;ratioP2;P2;SDS_P1;SDS_P2;PMS_P1;PMS_P2;Temp;Humidity;BMP_temperature;BMP_pressure;BME280_temperature;BME280_humidity;BME280_pressure;Samples;Min_cycle;Max_cycle;Signal;HPM_P1;HPM_P2
2023/09/17 00:01:18;;;;;;;14.00;9.27;;;;;;;-145.18;100.00;46676.03;5004246;28;20038;-60
2023/09/17 00:03:43;;;;;;;20.80;9.37;;;;;;;-145.18;100.00;46677.97;5003723;28;20026;-60
2023/09/17 00:06:09;;;;;;;11.77;8.27;;;;;;;-145.18;100.00;46677.97;5012029;28;20040;-60
2023/09/17 00:08:35;;;;;;;16.60;9.30;;;;;;;-145.18;100.00;46676.03;5011125;28;20513;-60
2023/09/17 00:11:01;;;;;;;13.07;9.87;;;;;;;-145.18;100.00;46642.81;5015994;28;20022;-60
2023/09/17 00:13:26;;;;;;;14.60;9.47;;;;;;;-145.18;100.00;46640.88;5015462;28;20046;-60
2023/09/17 00:15:53;;;;;;;13.03;8.77;;;;;;;-145.18;100.00;46677.97;5015993;28;20024;-60
2023/09/17 00:18:18;;;;;;;11.60;9.13;;;;;;;-145.18;100.00;46642.81;5015024;28;20022;-60
2023/09/17 00:20:44;;;;;;;13.53;9.60;;;;;;;-145.18;100.00;46648.69;5012021;28;20029;-60
2023/09/17 00:23:10;;;;;;;17.97;9.77;;;;;;;-145.18;100.00;46638.91;5014511;28;20026;-60
2023/09/17 00:25:37;;;;;;;14.43;10.30;;;;;;;-145.18;100.00;46644.78;5014901;28;20041;-60
2023/09/17 00:28:02;;;;;;;12.67;10.13;;;;;;;-145.18;100.00;46640.88;5015670;28;20113;-60
2023/09/17 00:30:28;;;;;;;12.70;10.30;;;;;;;-145.18;100.00;46644.78;5015439;28;20461;-60
2023/09/17 00:32:53;;;;;;;14.30;10.43;;;;;;;-145.18;100.00;46642.81;5015080;28;20513;-60
2023/09/17 00:35:18;;;;;;;16.03;10.23;;;;;;;-145.18;100.00;46648.69;5014395;28;20042;-60
2023/09/17 00:37:44;;;;;;;12.97;10.27;;;;;;;-145.18;100.00;46648.69;5015322;28;20024;-59
2023/09/17 00:40:10;;;;;;;14.37;10.63;;;;;;;-145.18;100.00;46644.78;5015355;28;20065;-60
2023/09/17 00:42:36;;;;;;;17.77;11.00;;;;;;;-145.18;100.00;46648.69;5015315;28;20030;-60
2023/09/17 00:45:02;;;;;;;14.37;10.93;;;;;;;-145.18;100.00;46644.78;5015678;28;20482;-64
2023/09/17 00:47:29;;;;;;;12.60;10.00;;;;;;;-145.18;100.00;46644.78;5015363;28;20462;-64
2023/09/17 00:49:55;;;;;;;15.17;10.90;;;;;;;-145.18;100.00;46642.81;5011247;28;20034;-64
2023/09/17 00:52:21;;;;;;;16.87;11.63;;;;;;;-145.18;100.00;46650.63;5011647;28;20029;-64
2023/09/17 00:54:49;;;;;;;13.87;11.03;;;;;;;-145.18;100.00;46656.50;5015590;28;20076;-64
2023/09/17 00:57:16;;;;;;;24.40;11.87;;;;;;;-145.18;100.00;46650.63;5015317;28;20026;-64
2023/09/17 00:59:47;;;;;;;20.43;11.80;;;;;;;-145.18;100.00;46648.69;5011394;28;20076;-65
2023/09/17 01:02:14;;;;;;;15.17;11.93;;;;;;;-145.18;100.00;46644.78;5014662;28;20033;-64
2023/09/17 01:04:41;;;;;;;17.47;11.40;;;;;;;-145.18;100.00;46648.69;5015416;28;20053;-64
2023/09/17 01:07:07;;;;;;;15.80;11.00;;;;;;;-145.18;100.00;46656.50;5014388;28;20025;-64
2023/09/17 01:09:34;;;;;;;15.97;11.20;;;;;;;-145.18;100.00;46652.59;5015170;28;20026;-64
2023/09/17 01:12:01;;;;;;;15.63;10.93;;;;;;;-145.18;100.00;46648.69;5013138;28;20528;-64
2023/09/17 01:14:27;;;;;;;14.60;11.00;;;;;;;-145.18;100.00;46654.53;5014466;28;20044;-65
2023/09/17 01:16:54;;;;;;;15.33;11.63;;;;;;;-145.18;100.00;46658.44;5014751;28;20052;-64
2023/09/17 01:19:28;;;;;;;16.30;12.10;;;;;;;-145.18;100.00;46644.78;5013502;28;20460;-64
2023/09/17 01:22:21;;;;;;;14.43;11.63;;;;;;;-145.18;100.00;46646.72;5012969;28;20482;-64
2023/09/17 01:25:14;;;;;;;18.53;11.93;;;;;;;-145.18;100.00;46650.63;5003419;28;20033;-64
2023/09/17 01:27:40;;;;;;;16.10;11.97;;;;;;;-145.18;100.00;46650.63;5014583;28;20026;-64
2023/09/17 01:30:15;;;;;;;15.57;12.10;;;;;;;-145.18;100.00;46650.63;5003173;28;20034;-64
2023/09/17 01:32:42;;;;;;;18.52;12.45;;;;;;;-145.18;100.00;46652.59;5002211;28;20033;-65
2023/09/17 01:35:13;;;;;;;17.47;12.97;;;;;;;-145.18;100.00;46652.59;5013619;28;20533;-64
2023/09/17 01:37:47;;;;;;;18.80;13.50;;;;;;;-145.18;100.00;46652.59;5000853;28;20034;-64
2023/09/17 01:40:12;;;;;;;17.93;13.87;;;;;;;-145.18;100.00;46650.63;5014339;28;20033;-64
2023/09/17 01:42:40;;;;;;;16.37;13.07;;;;;;;-145.18;100.00;46642.81;5013372;28;20385;-65
2023/09/17 01:45:08;;;;;;;18.37;12.83;;;;;;;-145.18;100.00;46646.72;5014546;28;20029;-60
2023/09/17 01:47:35;;;;;;;18.13;13.80;;;;;;;-145.18;100.00;46646.72;5014189;28;20558;-59
2023/09/17 01:50:04;;;;;;;16.90;13.50;;;;;;;-145.18;100.00;46679.94;5014213;28;20040;-60
2023/09/17 01:52:32;;;;;;;18.47;13.67;;;;;;;-145.18;100.00;46644.78;5012561;28;20033;-60
2023/09/17 01:54:58;;;;;;;20.23;13.50;;;;;;;-145.18;100.00;46642.81;5011709;28;20030;-59
2023/09/17 01:57:24;;;;;;;16.33;12.63;;;;;;;-145.18;100.00;46642.81;5014379;28;20021;-60
2023/09/17 01:59:49;;;;;;;20.67;14.13;;;;;;;-145.18;100.00;46648.69;5013861;28;20478;-60
2023/09/17 02:02:15;;;;;;;22.37;14.40;;;;;;;-145.18;100.00;46640.88;5012448;28;20417;-60
2023/09/17 02:04:41;;;;;;;21.23;14.13;;;;;;;-145.18;100.00;46644.78;5014071;28;20033;-60
2023/09/17 02:07:07;;;;;;;20.33;14.20;;;;;;;-145.18;100.00;46640.88;5012306;28;20061;-60
2023/09/17 02:09:32;;;;;;;19.53;13.90;;;;;;;-145.18;100.00;46642.81;5011247;28;20035;-60
2023/09/17 02:11:57;;;;;;;17.70;13.73;;;;;;;-145.18;100.00;46679.94;5010772;28;20037;-60
2023/09/17 02:14:23;;;;;;;17.03;14.00;;;;;;;-145.18;100.00;46644.78;5013354;28;20058;-60
2023/09/17 02:16:49;;;;;;;16.30;13.70;;;;;;;-145.18;100.00;46642.81;5013860;28;20030;-60
2023/09/17 02:19:14;;;;;;;19.70;14.40;;;;;;;-145.18;100.00;46642.81;5013293;28;20026;-59
2023/09/17 02:21:40;;;;;;;20.83;14.63;;;;;;;-145.18;100.00;46642.81;5013366;28;20112;-60
2023/09/17 02:24:06;;;;;;;24.00;15.53;;;;;;;-145.18;100.00;46660.41;5011386;28;20032;-60
2023/09/17 02:26:32;;;;;;;21.70;15.03;;;;;;;-145.18;100.00;46642.81;5014115;28;20430;-60
2023/09/17 02:28:57;;;;;;;18.03;14.10;;;;;;;-145.18;100.00;46660.41;5002051;28;20113;-60
2023/09/17 02:31:24;;;;;;;19.13;14.37;;;;;;;-145.18;100.00;46642.81;5011651;28;20038;-59
2023/09/17 02:33:49;;;;;;;19.83;14.27;;;;;;;-145.18;100.00;46640.88;5012669;28;20056;-60
2023/09/17 02:36:14;;;;;;;18.03;14.13;;;;;;;-145.18;100.00;46640.88;5013481;28;20057;-60
2023/09/17 02:38:43;;;;;;;20.40;14.20;;;;;;;-145.18;100.00;46642.81;5007567;28;20045;-60
2023/09/17 02:41:08;;;;;;;20.93;14.10;;;;;;;-145.18;100.00;46644.78;5013584;28;20022;-60
2023/09/17 02:43:36;;;;;;;21.30;14.10;;;;;;;-145.18;100.00;46640.88;5013131;28;20547;-60
2023/09/17 02:46:03;;;;;;;21.43;13.87;;;;;;;-145.18;100.00;46640.88;5012887;28;20034;-60
2023/09/17 02:48:29;;;;;;;18.80;13.63;;;;;;;-145.18;100.00;46640.88;5011954;28;20113;-60
2023/09/17 02:50:54;;;;;;;19.53;14.27;;;;;;;-145.18;100.00;46642.81;5012672;28;20033;-60
2023/09/17 02:53:20;;;;;;;19.57;13.50;;;;;;;-145.18;100.00;46640.88;5012741;28;20038;-60
2023/09/17 02:55:45;;;;;;;16.90;12.77;;;;;;;-145.18;100.00;46644.78;5012873;28;20052;-60
2023/09/17 02:58:12;;;;;;;17.73;11.93;;;;;;;-145.18;100.00;46642.81;5012679;28;20034;-60
2023/09/17 03:00:38;;;;;;;18.37;13.03;;;;;;;-145.18;100.00;46644.78;5012558;28;20022;-60
2023/09/17 03:03:03;;;;;;;16.57;12.20;;;;;;;-145.18;100.00;46644.78;5012342;28;20038;-60
2023/09/17 03:05:29;;;;;;;16.23;12.73;;;;;;;-145.18;100.00;46644.78;5012443;28;20022;-60
2023/09/17 03:07:55;;;;;;;18.73;12.77;;;;;;;-145.18;100.00;46677.97;5011345;28;20029;-60
2023/09/17 03:10:20;;;;;;;18.43;12.93;;;;;;;-145.18;100.00;46640.88;5002659;28;20061;-60
2023/09/17 03:12:46;;;;;;;15.83;12.67;;;;;;;-145.18;100.00;46660.41;5012586;28;20054;-60
2023/09/17 03:15:15;;;;;;;14.67;11.77;;;;;;;-145.18;100.00;46642.81;5012234;28;20068;-60
2023/09/17 03:17:43;;;;;;;15.37;11.37;;;;;;;-145.18;100.00;46677.97;5012155;28;20466;-60
2023/09/17 03:20:22;;;;;;;14.30;10.87;;;;;;;-145.18;100.00;46677.97;5000464;28;20385;-60
2023/09/17 03:22:48;;;;;;;19.97;12.40;;;;;;;-145.18;100.00;46660.41;5012730;28;20033;-60
2023/09/17 03:25:13;;;;;;;18.53;12.40;;;;;;;-145.18;100.00;46660.41;5005273;28;20482;-60
2023/09/17 03:27:43;;;;;;;17.60;13.07;;;;;;;-145.18;100.00;46660.41;5012119;28;20063;-60
2023/09/17 03:30:09;;;;;;;14.10;11.47;;;;;;;-145.18;100.00;46640.88;5000042;28;20030;-60
2023/09/17 03:32:35;;;;;;;17.60;12.00;;;;;;;-145.18;100.00;46660.41;5012575;28;20092;-60
2023/09/17 03:35:01;;;;;;;18.83;11.87;;;;;;;-145.18;100.00;46676.03;5012338;28;20493;-60
2023/09/17 03:37:26;;;;;;;15.63;12.40;;;;;;;-145.18;100.00;46660.41;5012440;28;20061;-60
2023/09/17 03:40:08;;;;;;;20.17;12.57;;;;;;;-145.18;100.00;46660.41;5011009;28;20061;-60
2023/09/17 03:42:35;;;;;;;17.47;11.87;;;;;;;-145.18;100.00;46660.41;5012218;28;20105;-60
2023/09/17 03:45:03;;;;;;;14.87;11.73;;;;;;;-145.18;100.00;46660.41;5012207;28;20084;-60
2023/09/17 03:47:29;;;;;;;17.47;12.40;;;;;;;-145.18;100.00;46660.41;5012273;28;20113;-60
2023/09/17 03:49:54;;;;;;;16.23;12.60;;;;;;;-145.18;100.00;46660.41;5012197;28;20454;-60
2023/09/17 03:52:19;;;;;;;18.73;12.20;;;;;;;-145.18;100.00;46660.41;5010173;28;20445;-60
2023/09/17 03:54:45;;;;;;;15.63;11.90;;;;;;;-145.18;100.00;46660.41;5006702;28;20029;-60
2023/09/17 03:57:10;;;;;;;16.87;11.40;;;;;;;-145.18;100.00;46660.41;5010241;28;20400;-60
2023/09/17 03:59:35;;;;;;;15.80;12.17;;;;;;;-145.18;100.00;46660.41;5011631;28;20021;-60
2023/09/17 04:02:01;;;;;;;16.93;11.07;;;;;;;-145.18;100.00;46660.41;5009995;28;20055;-60
2023/09/17 04:04:26;;;;;;;20.30;12.17;;;;;;;-145.18;100.00;46660.41;4993362;28;20034;-60
2023/09/17 04:06:52;;;;;;;16.47;11.17;;;;;;;-145.18;100.00;46660.41;5011603;28;20033;-60
2023/09/17 04:09:17;;;;;;;15.33;11.50;;;;;;;-145.18;100.00;46660.41;5011725;28;20065;-60
2023/09/17 04:11:43;;;;;;;15.57;11.87;;;;;;;-145.18;100.00;46660.41;5006245;28;20042;-60
2023/09/17 04:14:09;;;;;;;19.33;12.60;;;;;;;-145.18;100.00;46660.41;5007887;28;20077;-60
2023/09/17 04:16:35;;;;;;;16.07;12.03;;;;;;;-145.18;100.00;46660.41;5012015;28;20084;-60
2023/09/17 04:19:00;;;;;;;16.13;12.70;;;;;;;-145.18;100.00;46660.41;5009433;28;20092;-60
2023/09/17 04:21:25;;;;;;;17.17;12.70;;;;;;;-145.18;100.00;46660.41;5009201;28;20027;-61
2023/09/17 04:23:51;;;;;;;17.03;12.93;;;;;;;-145.18;100.00;46660.41;5006478;28;20113;-61
2023/09/17 04:26:17;;;;;;;17.73;12.93;;;;;;;-145.18;100.00;46660.41;5011441;28;20041;-61
2023/09/17 04:28:43;;;;;;;19.03;13.07;;;;;;;-145.18;100.00;46660.41;5009953;28;20037;-61
2023/09/17 04:31:08;;;;;;;18.73;13.03;;;;;;;-145.18;100.00;46660.41;5008451;28;20053;-61
2023/09/17 04:33:33;;;;;;;17.93;12.10;;;;;;;-145.18;100.00;46660.41;5011728;28;20481;-61
2023/09/17 04:35:59;;;;;;;18.43;12.27;;;;;;;-145.18;100.00;46660.41;5009926;28;20049;-61
2023/09/17 04:38:24;;;;;;;18.60;12.67;;;;;;;-145.18;100.00;46658.44;5010202;28;20029;-61
2023/09/17 04:40:50;;;;;;;16.67;12.27;;;;;;;-145.18;100.00;46660.41;5011651;28;20040;-61
2023/09/17 04:43:16;;;;;;;16.20;12.20;;;;;;;-145.18;100.00;46660.41;5011230;28;20021;-61
2023/09/17 04:45:42;;;;;;;17.40;13.77;;;;;;;-145.18;100.00;46656.50;5009342;28;20034;-61
2023/09/17 04:48:09;;;;;;;16.77;12.87;;;;;;;-145.18;100.00;46658.44;5008508;28;20117;-61
2023/09/17 04:50:34;;;;;;;18.23;13.13;;;;;;;-145.18;100.00;46654.53;5011184;28;20038;-61
2023/09/17 04:53:00;;;;;;;18.13;12.50;;;;;;;-145.18;100.00;46652.59;5010725;28;20056;-61
2023/09/17 04:55:26;;;;;;;16.90;13.70;;;;;;;-145.18;100.00;46658.44;5011685;28;20054;-61
2023/09/17 04:57:52;;;;;;;19.70;13.40;;;;;;;-145.18;100.00;46654.53;5008678;28;20065;-61
2023/09/17 05:00:20;;;;;;;24.13;13.47;;;;;;;-145.18;100.00;46652.59;5009544;28;20393;-61
2023/09/17 05:02:46;;;;;;;17.03;13.00;;;;;;;-145.18;100.00;46652.59;5003536;28;20057;-61
2023/09/17 05:05:12;;;;;;;21.30;14.67;;;;;;;-145.18;100.00;46650.63;5013326;28;20501;-62
2023/09/17 05:07:39;;;;;;;19.43;13.57;;;;;;;-145.18;100.00;46654.53;5013152;28;20432;-61
2023/09/17 05:10:06;;;;;;;18.87;13.40;;;;;;;-145.18;100.00;46650.63;5012811;28;20076;-61
2023/09/17 05:12:31;;;;;;;19.53;14.37;;;;;;;-145.18;100.00;46642.81;5014297;28;20058;-61
2023/09/17 05:14:57;;;;;;;20.37;14.33;;;;;;;-145.18;100.00;46650.63;5014451;28;20049;-61
2023/09/17 05:17:22;;;;;;;17.13;13.23;;;;;;;-145.18;100.00;46640.88;5009859;28;20038;-61
2023/09/17 05:19:47;;;;;;;19.17;13.67;;;;;;;-145.18;100.00;46652.59;5004450;28;20030;-61
2023/09/17 05:22:13;;;;;;;20.83;13.67;;;;;;;-145.18;100.00;46652.59;5011220;28;20520;-61
2023/09/17 05:24:39;;;;;;;23.37;14.60;;;;;;;-145.18;100.00;46652.59;5011859;28;20030;-61
2023/09/17 05:27:04;;;;;;;21.50;13.60;;;;;;;-145.18;100.00;46640.88;5014281;28;20037;-61
2023/09/17 05:29:29;;;;;;;22.63;14.90;;;;;;;-145.18;100.00;46640.88;5013724;28;20030;-61
2023/09/17 05:31:55;;;;;;;21.53;14.80;;;;;;;-145.18;100.00;46635.00;5012229;28;20044;-61
2023/09/17 05:34:20;;;;;;;23.20;15.90;;;;;;;-145.18;100.00;46650.63;5014511;28;20112;-61
2023/09/17 05:36:45;;;;;;;19.57;14.87;;;;;;;-145.18;100.00;46640.88;5014581;28;20033;-61
2023/09/17 05:39:11;;;;;;;21.77;14.60;;;;;;;-145.18;100.00;46650.63;5011012;28;20038;-61
2023/09/17 05:41:37;;;;;;;18.43;14.23;;;;;;;-145.18;100.00;46650.63;5014251;28;20038;-61
2023/09/17 05:44:03;;;;;;;19.87;14.03;;;;;;;-145.18;100.00;46640.88;5013178;28;20509;-61
2023/09/17 05:46:30;;;;;;;24.47;15.87;;;;;;;-145.18;100.00;46638.91;5012770;28;20052;-61
2023/09/17 05:48:56;;;;;;;21.00;14.77;;;;;;;-145.18;100.00;46650.63;5010818;28;20060;-61
2023/09/17 05:51:21;;;;;;;20.70;14.70;;;;;;;-145.18;100.00;46640.88;5012986;28;20073;-61
2023/09/17 05:53:47;;;;;;;21.80;15.27;;;;;;;-145.18;100.00;46642.81;5014140;28;20057;-61
2023/09/17 05:56:12;;;;;;;25.80;16.60;;;;;;;-145.18;100.00;46642.81;5011364;28;20042;-61
2023/09/17 05:58:37;;;;;;;25.07;16.33;;;;;;;-145.18;100.00;46640.88;5007281;28;20486;-61
2023/09/17 06:01:04;;;;;;;26.53;16.97;;;;;;;-145.18;100.00;46640.88;5012079;28;20030;-61
2023/09/17 06:03:30;;;;;;;27.23;16.87;;;;;;;-145.18;100.00;46642.81;5010589;28;20087;-62
2023/09/17 06:05:55;;;;;;;24.77;17.03;;;;;;;-145.18;100.00;46640.88;5013859;28;20034;-62
2023/09/17 06:08:21;;;;;;;26.07;18.10;;;;;;;-145.18;100.00;46640.88;5011386;28;20393;-61
2023/09/17 06:10:47;;;;;;;24.27;17.37;;;;;;;-145.18;100.00;46636.94;5002309;28;20038;-61
2023/09/17 06:13:12;;;;;;;26.27;17.20;;;;;;;-145.18;100.00;46638.91;5008314;28;20605;-61
2023/09/17 06:15:38;;;;;;;26.47;18.20;;;;;;;-145.18;100.00;46635.00;5005126;28;20037;-61
2023/09/17 06:18:03;;;;;;;27.17;18.17;;;;;;;-145.18;100.00;46640.88;5007184;28;20040;-61
2023/09/17 06:20:29;;;;;;;28.03;17.10;;;;;;;-145.18;100.00;46638.91;5013214;28;20037;-61
2023/09/17 06:22:55;;;;;;;27.23;16.57;;;;;;;-145.18;100.00;46640.88;5013014;28;20034;-61
2023/09/17 06:25:23;;;;;;;22.80;17.00;;;;;;;-145.18;100.00;46638.91;5005285;28;20045;-61
2023/09/17 06:27:48;;;;;;;28.00;17.80;;;;;;;-145.18;100.00;46640.88;5008644;28;20034;-61
2023/09/17 06:30:14;;;;;;;26.37;18.40;;;;;;;-145.18;100.00;46640.88;5009698;28;20046;-60
2023/09/17 06:32:41;;;;;;;25.57;17.80;;;;;;;-145.18;100.00;46640.88;5011133;28;20084;-61
2023/09/17 06:35:07;;;;;;;30.57;18.63;;;;;;;-145.18;100.00;46636.94;5008823;28;20502;-61
2023/09/17 06:37:32;;;;;;;30.17;18.50;;;;;;;-145.18;100.00;46638.91;5003052;28;20053;-61
2023/09/17 06:39:58;;;;;;;26.80;19.47;;;;;;;-145.18;100.00;46642.81;4995695;28;20030;-60
2023/09/17 06:42:23;;;;;;;29.43;19.27;;;;;;;-145.18;100.00;46636.94;5012781;28;20428;-61
2023/09/17 06:44:48;;;;;;;25.93;18.17;;;;;;;-145.18;100.00;46640.88;5012826;28;20033;-59
2023/09/17 06:47:15;;;;;;;29.67;19.43;;;;;;;-145.18;100.00;46638.91;5012917;28;20034;-61
2023/09/17 06:49:41;;;;;;;29.70;18.63;;;;;;;-145.18;100.00;46636.94;5013336;28;20394;-60
2023/09/17 06:52:07;;;;;;;30.63;20.30;;;;;;;-145.18;100.00;46640.88;5012688;28;20033;-60
2023/09/17 06:54:32;;;;;;;28.93;19.73;;;;;;;-145.18;100.00;46640.88;5003481;28;20037;-61
2023/09/17 06:56:58;;;;;;;29.23;19.77;;;;;;;-145.18;100.00;46636.94;4994385;28;20057;-61
2023/09/17 06:59:23;;;;;;;29.57;19.73;;;;;;;-145.18;100.00;46631.09;5012803;28;20049;-61
2023/09/17 07:01:48;;;;;;;25.13;18.53;;;;;;;-145.18;100.00;46636.94;5012705;28;20478;-60
2023/09/17 07:04:14;;;;;;;27.17;19.77;;;;;;;-145.18;100.00;46636.94;5012738;28;20040;-60
2023/09/17 07:06:39;;;;;;;27.73;18.93;;;;;;;-145.18;100.00;46636.94;5011366;28;20030;-60
2023/09/17 07:09:05;;;;;;;26.07;17.90;;;;;;;-145.18;100.00;46635.00;5012623;28;20113;-60
2023/09/17 07:11:30;;;;;;;26.57;18.53;;;;;;;-145.18;100.00;46636.94;5010492;28;20034;-60
2023/09/17 07:13:56;;;;;;;26.47;17.17;;;;;;;-145.18;100.00;46638.91;5011928;28;20434;-60
2023/09/17 07:16:23;;;;;;;25.50;18.50;;;;;;;-145.18;100.00;46636.94;5008862;28;20501;-60
2023/09/17 07:18:49;;;;;;;23.13;16.07;;;;;;;-145.18;100.00;46633.06;5009504;28;20033;-60
2023/09/17 07:21:14;;;;;;;20.77;15.27;;;;;;;-145.18;100.00;46631.09;5011541;28;20394;-60
2023/09/17 07:23:40;;;;;;;23.90;15.87;;;;;;;-145.18;100.00;46635.00;5008066;28;20044;-60
2023/09/17 07:26:06;;;;;;;21.00;16.07;;;;;;;-145.18;100.00;46636.94;5010575;28;20042;-60
2023/09/17 07:28:32;;;;;;;23.47;15.77;;;;;;;-145.18;100.00;46636.94;5011689;28;20037;-60
2023/09/17 07:30:57;;;;;;;22.57;16.30;;;;;;;-145.18;100.00;46635.00;5011266;28;20038;-60
2023/09/17 07:33:23;;;;;;;21.97;15.10;;;;;;;-145.18;100.00;46636.94;5001163;28;20038;-60
2023/09/17 07:35:49;;;;;;;19.57;14.87;;;;;;;-145.18;100.00;46638.91;5004994;28;20117;-60
2023/09/17 07:38:14;;;;;;;22.10;16.10;;;;;;;-145.18;100.00;46638.91;5011891;28;20109;-60
2023/09/17 07:40:39;;;;;;;22.43;15.30;;;;;;;-145.18;100.00;46635.00;5008360;28;20355;-60
2023/09/17 07:43:06;;;;;;;21.00;15.20;;;;;;;-145.18;100.00;46633.06;5005178;28;20034;-60
2023/09/17 07:45:33;;;;;;;21.43;13.53;;;;;;;-145.18;100.00;46635.00;5008769;28;20042;-60
2023/09/17 07:47:59;;;;;;;20.30;15.03;;;;;;;-145.18;100.00;46636.94;5010729;28;20034;-59
2023/09/17 07:50:25;;;;;;;19.03;13.93;;;;;;;-145.18;100.00;46631.09;5011177;28;20037;-60
2023/09/17 07:52:50;;;;;;;19.33;14.33;;;;;;;-145.18;100.00;46633.06;5011813;28;20044;-60
2023/09/17 07:55:20;;;;;;;19.80;13.47;;;;;;;-145.18;100.00;46633.06;5011183;28;20050;-59
2023/09/17 07:57:46;;;;;;;18.17;13.70;;;;;;;-145.18;100.00;46633.06;5011314;28;20037;-59
2023/09/17 08:00:15;;;;;;;21.30;14.70;;;;;;;-145.18;100.00;46633.06;5007881;28;20037;-60
2023/09/17 08:02:43;;;;;;;21.13;14.70;;;;;;;-145.18;100.00;46631.09;5010227;28;20034;-59
2023/09/17 08:05:08;;;;;;;19.20;14.00;;;;;;;-145.18;100.00;46633.06;5011158;28;20516;-60
2023/09/17 08:07:36;;;;;;;19.33;14.47;;;;;;;-145.18;100.00;46633.06;5011178;28;20030;-60
2023/09/17 08:10:03;;;;;;;20.70;14.50;;;;;;;-145.18;100.00;46633.06;5011272;28;20482;-59
2023/09/17 08:12:29;;;;;;;18.67;14.13;;;;;;;-145.18;100.00;46631.09;5008706;28;20030;-60
2023/09/17 08:14:54;;;;;;;22.90;14.60;;;;;;;-145.18;100.00;46629.13;5011420;28;20120;-60
2023/09/17 08:17:20;;;;;;;20.33;15.27;;;;;;;-145.18;100.00;46629.13;5006948;28;20069;-60
2023/09/17 08:19:45;;;;;;;20.90;15.37;;;;;;;-145.18;100.00;46629.13;5007192;28;20026;-60
2023/09/17 08:22:10;;;;;;;22.00;15.43;;;;;;;-145.18;100.00;46629.13;5005359;28;20117;-60
2023/09/17 08:24:36;;;;;;;21.83;15.90;;;;;;;-145.18;100.00;46633.06;5003052;28;20638;-60
2023/09/17 08:27:01;;;;;;;22.27;16.27;;;;;;;-145.18;100.00;46627.19;5006411;28;20041;-59
2023/09/17 08:29:26;;;;;;;24.07;16.40;;;;;;;-145.18;100.00;46627.19;5011695;28;20038;-60
2023/09/17 08:31:52;;;;;;;22.07;15.47;;;;;;;-145.18;100.00;46593.97;5011837;28;20041;-60
2023/09/17 08:34:17;;;;;;;25.13;17.00;;;;;;;-145.18;100.00;46588.13;5015508;28;20390;-60
2023/09/17 08:36:44;;;;;;;23.73;16.10;;;;;;;-145.18;100.00;46580.31;5012156;28;20045;-60
2023/09/17 08:39:11;;;;;;;25.70;17.63;;;;;;;-145.18;100.00;46578.34;5014120;28;20030;-60
2023/09/17 08:41:38;;;;;;;24.67;16.03;;;;;;;-145.18;100.00;46580.31;5013416;28;20026;-60
2023/09/17 08:44:05;;;;;;;25.53;16.53;;;;;;;-145.18;100.00;46576.41;5014099;28;20060;-60
2023/09/17 08:46:32;;;;;;;26.20;17.07;;;;;;;-145.18;100.00;46576.41;5009003;28;20129;-60
2023/09/17 08:48:58;;;;;;;25.30;17.03;;;;;;;-145.18;100.00;46580.31;5012039;28;20402;-60
2023/09/17 08:51:25;;;;;;;25.10;17.27;;;;;;;-145.18;100.00;46578.34;5015610;28;20034;-59
2023/09/17 08:54:05;;;;;;;28.17;17.30;;;;;;;-145.18;100.00;46580.31;5013892;28;20461;-60
2023/09/17 08:56:32;;;;;;;26.57;18.47;;;;;;;-145.18;100.00;46582.25;5009055;28;20022;-60
2023/09/17 08:59:06;;;;;;;26.37;17.90;;;;;;;-145.18;100.00;46578.34;5014213;28;20055;-60
2023/09/17 09:01:33;;;;;;;31.07;19.07;;;;;;;-145.18;100.00;46580.31;5014867;28;20057;-59
2023/09/17 09:04:00;;;;;;;27.07;17.77;;;;;;;-145.18;100.00;46580.31;5014917;28;20103;-60
2023/09/17 09:06:27;;;;;;;26.13;17.60;;;;;;;-145.18;100.00;46580.31;5014585;28;20057;-60
2023/09/17 09:08:54;;;;;;;23.40;16.67;;;;;;;-145.18;100.00;46584.22;5014406;28;20041;-60
2023/09/17 09:11:20;;;;;;;22.73;15.70;;;;;;;-145.18;100.00;46580.31;5010493;28;20117;-60
2023/09/17 09:13:46;;;;;;;25.97;16.50;;;;;;;-145.18;100.00;46582.25;4996806;28;20090;-60
2023/09/17 09:16:12;;;;;;;22.17;14.63;;;;;;;-145.18;100.00;46584.22;5011159;28;20061;-60
2023/09/17 09:18:38;;;;;;;27.00;16.53;;;;;;;-145.18;100.00;46588.13;5001579;28;20061;-60
2023/09/17 09:21:04;;;;;;;22.50;15.93;;;;;;;-145.18;100.00;46595.94;5004538;28;20040;-60
2023/09/17 09:23:29;;;;;;;26.17;16.40;;;;;;;-145.18;100.00;46595.94;5011622;28;20026;-60
2023/09/17 09:25:55;;;;;;;28.63;16.40;;;;;;;-145.18;100.00;46593.97;5014566;28;20639;-60
2023/09/17 09:28:20;;;;;;;24.57;15.23;;;;;;;-145.18;100.00;46592.03;5008515;28;20038;-60
2023/09/17 09:30:45;;;;;;;26.13;15.43;;;;;;;-145.18;100.00;46593.97;5012867;28;20033;-60
2023/09/17 09:33:12;;;;;;;22.80;15.53;;;;;;;-145.18;100.00;46597.88;5001205;28;20068;-60
2023/09/17 09:35:38;;;;;;;27.73;15.43;;;;;;;-145.18;100.00;46597.88;5014682;28;20427;-60
2023/09/17 09:38:03;;;;;;;26.93;15.40;;;;;;;-145.18;100.00;46595.94;5003124;28;20053;-60
2023/09/17 09:40:30;;;;;;;24.27;16.50;;;;;;;-145.18;100.00;46593.97;5014381;28;20560;-60
2023/09/17 09:42:57;;;;;;;27.57;16.20;;;;;;;-145.18;100.00;46593.97;5004275;28;20068;-60
2023/09/17 09:45:22;;;;;;;26.33;16.60;;;;;;;-145.18;100.00;46590.06;5009842;28;20104;-60
2023/09/17 09:47:49;;;;;;;25.83;15.73;;;;;;;-145.18;100.00;46592.03;5000786;28;20089;-60
2023/09/17 09:50:25;;;;;;;24.23;16.27;;;;;;;-145.18;100.00;46590.06;5013946;28;20041;-60
2023/09/17 09:52:52;;;;;;;26.77;16.97;;;;;;;-145.18;100.00;46590.06;5006601;28;20401;-60
2023/09/17 09:55:21;;;;;;;27.27;17.13;;;;;;;-145.18;100.00;46592.03;5013517;28;20049;-60
2023/09/17 09:57:47;;;;;;;28.33;17.23;;;;;;;-145.18;100.00;46592.03;5013432;28;20639;-60
2023/09/17 10:00:18;;;;;;;26.13;16.43;;;;;;;-145.18;100.00;46590.06;5008087;28;20485;-60
2023/09/17 10:02:45;;;;;;;24.53;16.70;;;;;;;-145.18;100.00;46590.06;5012403;28;20398;-61
2023/09/17 10:05:12;;;;;;;32.83;17.93;;;;;;;-145.18;100.00;46586.16;5013545;28;20030;-60
2023/09/17 10:07:38;;;;;;;24.73;16.77;;;;;;;-145.18;100.00;46590.06;5013669;28;20030;-60
2023/09/17 10:10:05;;;;;;;27.70;17.47;;;;;;;-145.18;100.00;46590.06;5005946;28;20042;-60
2023/09/17 10:12:31;;;;;;;34.63;18.60;;;;;;;-145.18;100.00;46592.03;4997111;28;20522;-60
2023/09/17 10:14:56;;;;;;;32.17;17.27;;;;;;;-145.18;100.00;46586.16;5000670;28;20214;-60
2023/09/17 10:17:22;;;;;;;31.97;18.83;;;;;;;-145.18;100.00;46588.13;5011857;28;20414;-60
2023/09/17 10:19:49;;;;;;;30.77;18.77;;;;;;;-145.18;100.00;46588.13;5006287;28;20033;-60
2023/09/17 10:22:15;;;;;;;28.33;17.63;;;;;;;-145.18;100.00;46586.16;5008699;28;20141;-60
2023/09/17 10:24:42;;;;;;;32.27;19.67;;;;;;;-145.18;100.00;46592.03;5012504;28;20577;-60
2023/09/17 10:27:08;;;;;;;35.23;19.17;;;;;;;-145.18;100.00;46588.13;5010459;28;20048;-60
2023/09/17 10:29:38;;;;;;;34.10;19.67;;;;;;;-145.18;100.00;46590.06;5013245;28;20042;-60
2023/09/17 10:32:04;;;;;;;32.40;19.13;;;;;;;-145.18;100.00;46590.06;5013320;28;20044;-61
2023/09/17 10:34:35;;;;;;;35.00;18.17;;;;;;;-145.18;100.00;46593.97;5013210;28;20393;-60
2023/09/17 10:37:04;;;;;;;29.20;17.93;;;;;;;-145.18;100.00;46592.03;5011540;28;20035;-60
2023/09/17 10:39:32;;;;;;;35.43;19.17;;;;;;;-145.18;100.00;46592.03;5012796;28;20033;-60
2023/09/17 10:42:01;;;;;;;28.83;18.77;;;;;;;-145.18;100.00;46595.94;5012867;28;20037;-60
2023/09/17 10:44:29;;;;;;;30.90;19.37;;;;;;;-145.18;100.00;46590.06;5012195;28;20026;-61
2023/09/17 10:46:58;;;;;;;34.73;20.50;;;;;;;-145.18;100.00;46597.88;5009725;28;20041;-60
2023/09/17 10:49:26;;;;;;;29.63;19.33;;;;;;;-145.18;100.00;46597.88;5009556;28;20401;-61
2023/09/17 10:51:53;;;;;;;34.80;19.17;;;;;;;-145.18;100.00;46597.88;5009417;28;20042;-61